sensor_id;sensor_type;location;lat;lon;timestamp;temperature;humidity
16968;DHT22;64862;54.398;10.126;2024-01-16T00:06:54;-0.10;99.90
16968;DHT22;64862;54.398;10.126;2024-01-16T00:16:57;0.00;99.90
16968;DHT22;64862;54.398;10.126;2024-01-16T00:27:01;-0.10;99.90
16968;DHT22;64862;54.398;10.126;2024-01-16T00:37:05;0.30;99.90
16968;DHT22;64862;54.398;10.126;2024-01-16T00:47:08;0.10;99.90
16968;DHT22;64862;54.398;10.126;2024-01-16T00:57:11;0.00;99.90
16968;DHT22;64862;54.398;10.126;2024-01-16T01:07:15;0.00;99.90
16968;DHT22;64862;54.398;10.126;2024-01-16T01:17:20;0.00;99.90
16968;DHT22;64862;54.398;10.126;2024-01-16T01:27:22;-0.20;99.90
16968;DHT22;64862;54.398;10.126;2024-01-16T01:37:26;0.10;99.90
16968;DHT22;64862;54.398;10.126;2024-01-16T01:47:29;0.40;99.90
16968;DHT22;64862;54.398;10.126;2024-01-16T01:57:33;0.50;99.90
16968;DHT22;64862;54.398;10.126;2024-01-16T02:07:36;0.60;99.90
16968;DHT22;64862;54.398;10.126;2024-01-16T02:17:39;0.30;99.90
16968;DHT22;64862;54.398;10.126;2024-01-16T02:27:43;0.10;99.90
16968;DHT22;64862;54.398;10.126;2024-01-16T02:37:45;0.20;99.90
16968;DHT22;64862;54.398;10.126;2024-01-16T02:47:48;0.10;99.90
16968;DHT22;64862;54.398;10.126;2024-01-16T02:57:50;0.00;99.90
16968;DHT22;64862;54.398;10.126;2024-01-16T03:07:54;0.40;99.90
16968;DHT22;64862;54.398;10.126;2024-01-16T03:17:56;0.60;99.90
16968;DHT22;64862;54.398;10.126;2024-01-16T03:27:59;0.50;99.90
16968;DHT22;64862;54.398;10.126;2024-01-16T03:38:02;0.10;99.90
16968;DHT22;64862;54.398;10.126;2024-01-16T03:48:06;0.00;99.90
16968;DHT22;64862;54.398;10.126;2024-01-16T03:58:08;0.10;99.90
16968;DHT22;64862;54.398;10.126;2024-01-16T04:08:13;0.40;99.90
16968;DHT22;64862;54.398;10.126;2024-01-16T04:18:16;0.40;99.90
16968;DHT22;64862;54.398;10.126;2024-01-16T04:28:19;0.20;99.90
16968;DHT22;64862;54.398;10.126;2024-01-16T04:38:22;0.20;99.90
16968;DHT22;64862;54.398;10.126;2024-01-16T04:48:26;0.30;99.90
16968;DHT22;64862;54.398;10.126;2024-01-16T04:58:28;0.20;99.90
16968;DHT22;64862;54.398;10.126;2024-01-16T05:08:31;0.20;99.90
16968;DHT22;64862;54.398;10.126;2024-01-16T05:18:34;0.30;99.90
16968;DHT22;64862;54.398;10.126;2024-01-16T05:28:38;0.40;99.90
16968;DHT22;64862;54.398;10.126;2024-01-16T05:38:40;0.40;99.90
16968;DHT22;64862;54.398;10.126;2024-01-16T05:48:45;0.40;99.90
16968;DHT22;64862;54.398;10.126;2024-01-16T05:58:47;0.30;99.90
16968;DHT22;64862;54.398;10.126;2024-01-16T06:08:51;0.30;99.90
16968;DHT22;64862;54.398;10.126;2024-01-16T06:18:53;0.20;99.90
16968;DHT22;64862;54.398;10.126;2024-01-16T06:28:57;0.30;99.90
16968;DHT22;64862;54.398;10.126;2024-01-16T06:38:59;3.30;99.90
16968;DHT22;64862;54.398;10.126;2024-01-16T06:49:02;1.70;99.90
16968;DHT22;64862;54.398;10.126;2024-01-16T06:59:04;1.00;99.90
16968;DHT22;64862;54.398;10.126;2024-01-16T07:09:08;0.60;99.90
16968;DHT22;64862;54.398;10.126;2024-01-16T07:19:11;0.70;99.90
16968;DHT22;64862;54.398;10.126;2024-01-16T07:29:15;0.80;99.90
16968;DHT22;64862;54.398;10.126;2024-01-16T07:39:18;0.70;99.90
16968;DHT22;64862;54.398;10.126;2024-01-16T07:49:22;0.60;99.90
16968;DHT22;64862;54.398;10.126;2024-01-16T07:59:24;0.70;99.90
16968;DHT22;64862;54.398;10.126;2024-01-16T08:09:28;0.70;99.90
16968;DHT22;64862;54.398;10.126;2024-01-16T08:19:30;0.80;99.90
16968;DHT22;64862;54.398;10.126;2024-01-16T08:29:34;0.90;99.90
16968;DHT22;64862;54.398;10.126;2024-01-16T08:39:36;1.00;99.90
16968;DHT22;64862;54.398;10.126;2024-01-16T08:49:40;1.00;99.90
16968;DHT22;64862;54.398;10.126;2024-01-16T08:59:42;1.10;99.90
16968;DHT22;64862;54.398;10.126;2024-01-16T09:09:45;1.20;99.90
16968;DHT22;64862;54.398;10.126;2024-01-16T09:19:47;1.30;99.90
16968;DHT22;64862;54.398;10.126;2024-01-16T09:29:50;1.50;99.90
16968;DHT22;64862;54.398;10.126;2024-01-16T09:39:52;1.70;99.90
16968;DHT22;64862;54.398;10.126;2024-01-16T09:49:57;1.80;99.90
16968;DHT22;64862;54.398;10.126;2024-01-16T10:00:01;1.90;99.90
16968;DHT22;64862;54.398;10.126;2024-01-16T10:10:09;2.10;99.90
16968;DHT22;64862;54.398;10.126;2024-01-16T10:20:11;2.20;99.90
16968;DHT22;64862;54.398;10.126;2024-01-16T10:30:21;2.40;99.90
16968;DHT22;64862;54.398;10.126;2024-01-16T10:40:24;2.50;99.90
16968;DHT22;64862;54.398;10.126;2024-01-16T10:50:28;2.30;99.90
16968;DHT22;64862;54.398;10.126;2024-01-16T11:00:33;2.40;99.90
16968;DHT22;64862;54.398;10.126;2024-01-16T11:10:39;2.50;99.90
16968;DHT22;64862;54.398;10.126;2024-01-16T11:20:42;2.40;99.90
16968;DHT22;64862;54.398;10.126;2024-01-16T11:30:46;2.30;99.90
16968;DHT22;64862;54.398;10.126;2024-01-16T11:40:48;2.20;99.90
16968;DHT22;64862;54.398;10.126;2024-01-16T11:50:52;2.30;99.90
16968;DHT22;64862;54.398;10.126;2024-01-16T12:00:55;2.20;99.90
16968;DHT22;64862;54.398;10.126;2024-01-16T12:10:59;2.30;99.90
16968;DHT22;64862;54.398;10.126;2024-01-16T12:21:09;2.30;99.90
16968;DHT22;64862;54.398;10.126;2024-01-16T12:31:19;2.30;99.90
16968;DHT22;64862;54.398;10.126;2024-01-16T12:41:20;2.20;99.90
16968;DHT22;64862;54.398;10.126;2024-01-16T12:51:25;2.20;99.90
16968;DHT22;64862;54.398;10.126;2024-01-16T13:01:28;2.30;99.90
16968;DHT22;64862;54.398;10.126;2024-01-16T13:11:45;2.20;99.90
16968;DHT22;64862;54.398;10.126;2024-01-16T13:21:47;2.20;99.90
16968;DHT22;64862;54.398;10.126;2024-01-16T13:31:50;2.30;99.90
16968;DHT22;64862;54.398;10.126;2024-01-16T13:41:55;2.20;99.90
16968;DHT22;64862;54.398;10.126;2024-01-16T13:51:59;2.10;99.90
16968;DHT22;64862;54.398;10.126;2024-01-16T14:02:01;2.20;99.90
16968;DHT22;64862;54.398;10.126;2024-01-16T14:12:06;2.20;99.90
16968;DHT22;64862;54.398;10.126;2024-01-16T14:22:09;2.10;99.90
16968;DHT22;64862;54.398;10.126;2024-01-16T14:32:12;2.20;99.90
16968;DHT22;64862;54.398;10.126;2024-01-16T14:42:15;2.40;99.90
16968;DHT22;64862;54.398;10.126;2024-01-16T14:52:18;2.30;99.90
16968;DHT22;64862;54.398;10.126;2024-01-16T15:02:20;2.40;99.90
16968;DHT22;64862;54.398;10.126;2024-01-16T15:12:24;2.30;99.90
16968;DHT22;64862;54.398;10.126;2024-01-16T15:22:26;2.30;99.90
16968;DHT22;64862;54.398;10.126;2024-01-16T15:32:29;2.40;99.90
16968;DHT22;64862;54.398;10.126;2024-01-16T15:42:32;2.40;99.90
16968;DHT22;64862;54.398;10.126;2024-01-16T15:52:37;2.50;99.90
16968;DHT22;64862;54.398;10.126;2024-01-16T16:02:39;2.50;99.90
16968;DHT22;64862;54.398;10.126;2024-01-16T16:12:42;2.50;99.90
16968;DHT22;64862;54.398;10.126;2024-01-16T16:22:44;2.60;99.90
16968;DHT22;64862;54.398;10.126;2024-01-16T16:32:49;2.60;99.90
16968;DHT22;64862;54.398;10.126;2024-01-16T16:42:51;2.60;99.90
16968;DHT22;64862;54.398;10.126;2024-01-16T16:52:54;2.60;99.90
16968;DHT22;64862;54.398;10.126;2024-01-16T17:02:56;2.50;99.90
16968;DHT22;64862;54.398;10.126;2024-01-16T17:12:59;2.40;99.90
16968;DHT22;64862;54.398;10.126;2024-01-16T17:23:01;2.50;99.90
16968;DHT22;64862;54.398;10.126;2024-01-16T17:33:05;2.50;99.90
16968;DHT22;64862;54.398;10.126;2024-01-16T17:43:08;2.40;99.90
16968;DHT22;64862;54.398;10.126;2024-01-16T17:53:11;2.40;99.90
16968;DHT22;64862;54.398;10.126;2024-01-16T18:03:14;2.40;99.90
16968;DHT22;64862;54.398;10.126;2024-01-16T18:13:17;2.40;99.90
16968;DHT22;64862;54.398;10.126;2024-01-16T18:23:19;2.40;99.90
16968;DHT22;64862;54.398;10.126;2024-01-16T18:33:23;2.50;99.90
16968;DHT22;64862;54.398;10.126;2024-01-16T18:43:24;2.50;99.90
16968;DHT22;64862;54.398;10.126;2024-01-16T18:53:29;2.60;99.90
16968;DHT22;64862;54.398;10.126;2024-01-16T19:03:32;2.60;99.90
16968;DHT22;64862;54.398;10.126;2024-01-16T19:13:37;2.60;99.90
16968;DHT22;64862;54.398;10.126;2024-01-16T19:23:39;2.50;99.90
16968;DHT22;64862;54.398;10.126;2024-01-16T19:33:43;2.50;99.90
16968;DHT22;64862;54.398;10.126;2024-01-16T19:43:45;2.50;99.90
16968;DHT22;64862;54.398;10.126;2024-01-16T19:53:49;2.60;99.90
16968;DHT22;64862;54.398;10.126;2024-01-16T20:03:51;2.50;99.90
16968;DHT22;64862;54.398;10.126;2024-01-16T20:13:54;2.50;99.90
16968;DHT22;64862;54.398;10.126;2024-01-16T20:23:56;2.60;99.90
16968;DHT22;64862;54.398;10.126;2024-01-16T20:34:00;2.60;99.90
16968;DHT22;64862;54.398;10.126;2024-01-16T20:44:03;2.50;99.90
16968;DHT22;64862;54.398;10.126;2024-01-16T20:54:06;2.40;99.90
16968;DHT22;64862;54.398;10.126;2024-01-16T21:04:09;2.40;99.90
16968;DHT22;64862;54.398;10.126;2024-01-16T21:14:13;2.30;99.90
16968;DHT22;64862;54.398;10.126;2024-01-16T21:24:15;2.20;99.90
16968;DHT22;64862;54.398;10.126;2024-01-16T21:34:18;2.20;99.90
16968;DHT22;64862;54.398;10.126;2024-01-16T21:44:22;2.00;99.90
16968;DHT22;64862;54.398;10.126;2024-01-16T21:54:25;1.90;99.90
16968;DHT22;64862;54.398;10.126;2024-01-16T22:04:30;1.90;99.90
16968;DHT22;64862;54.398;10.126;2024-01-16T22:14:34;1.70;99.90
16968;DHT22;64862;54.398;10.126;2024-01-16T22:24:37;1.60;99.90
16968;DHT22;64862;54.398;10.126;2024-01-16T22:34:42;1.60;99.90
16968;DHT22;64862;54.398;10.126;2024-01-16T22:44:44;1.60;99.90
16968;DHT22;64862;54.398;10.126;2024-01-16T22:54:48;1.60;99.90
16968;DHT22;64862;54.398;10.126;2024-01-16T23:04:51;1.40;99.90
16968;DHT22;64862;54.398;10.126;2024-01-16T23:14:56;1.40;99.90
16968;DHT22;64862;54.398;10.126;2024-01-16T23:24:59;1.20;99.90
16968;DHT22;64862;54.398;10.126;2024-01-16T23:35:03;1.10;99.90
16968;DHT22;64862;54.398;10.126;2024-01-16T23:45:07;1.00;99.90
16968;DHT22;64862;54.398;10.126;2024-01-16T23:55:12;1.00;99.90
